createdAt,value
2023-08-13T00:15:58.546Z,57.11
2023-08-13T00:27:27.586Z,57.24
2023-08-13T00:30:00.511Z,57.57
2023-08-13T00:32:34.748Z,57.20
2023-08-13T00:35:08.355Z,57.42
2023-08-13T00:37:41.296Z,57.34
2023-08-13T00:40:14.076Z,57.34
2023-08-13T00:42:46.944Z,57.16
2023-08-13T00:45:19.908Z,57.65
2023-08-13T00:47:55.611Z,57.37
2023-08-13T00:50:28.646Z,57.66
2023-08-13T00:53:01.699Z,57.73
2023-08-13T00:55:34.649Z,57.55
2023-08-13T00:58:08.309Z,57.51
2023-08-13T01:00:41.203Z,58.03
2023-08-13T01:03:16.068Z,57.78
2023-08-13T01:05:56.094Z,58.10
2023-08-13T01:08:40.768Z,57.91
2023-08-13T01:11:22.579Z,57.96
2023-08-13T02:21:43.671Z,58.90
2023-08-13T02:47:18.807Z,58.66
2023-08-13T02:49:51.747Z,58.60
2023-08-13T02:52:24.533Z,58.66
2023-08-13T02:54:57.406Z,58.91
2023-08-13T02:57:34.591Z,58.74
2023-08-13T03:00:09.210Z,58.86
2023-08-13T03:02:43.529Z,58.89
2023-08-13T03:05:16.855Z,58.99
2023-08-13T03:07:49.717Z,58.91
2023-08-13T03:10:22.690Z,59.21
2023-08-13T03:12:55.569Z,59.11
2023-08-13T03:15:28.241Z,58.67
2023-08-13T03:18:02.675Z,59.16
2023-08-13T03:20:37.994Z,59.18
2023-08-13T03:23:11.099Z,59.34
2023-08-13T03:25:46.669Z,59.52
2023-08-13T03:28:19.889Z,59.43
2023-08-13T03:30:59.702Z,59.46
2023-08-13T03:33:37.185Z,59.40
2023-08-13T03:36:10.003Z,59.45
2023-08-13T03:38:42.779Z,59.40
2023-08-13T03:41:18.049Z,59.28
2023-08-13T03:43:50.962Z,59.43
2023-08-13T03:46:23.985Z,59.52
2023-08-13T03:48:58.138Z,59.59
2023-08-13T03:51:31.428Z,59.69
2023-08-13T03:54:07.676Z,59.83
2023-08-13T03:56:42.904Z,59.88
2023-08-13T03:59:15.660Z,59.87
2023-08-13T04:01:51.252Z,59.64
2023-08-13T04:04:26.023Z,59.81
2023-08-13T04:06:59.174Z,59.75
2023-08-13T04:09:31.992Z,59.85
2023-08-13T04:12:05.357Z,59.79
2023-08-13T04:14:38.444Z,59.91
2023-08-13T04:17:11.738Z,59.93
2023-08-13T04:19:45.957Z,59.98
2023-08-13T04:22:22.404Z,60.13
2023-08-13T04:24:56.153Z,59.85
2023-08-13T04:27:30.926Z,59.85
2023-08-13T04:30:03.969Z,59.77
2023-08-13T04:32:39.844Z,60.08
2023-08-13T04:35:14.334Z,60.10
2023-08-13T04:37:47.294Z,60.09
2023-08-13T04:40:20.887Z,60.33
2023-08-13T04:42:55.148Z,60.60
2023-08-13T04:45:29.612Z,60.60
2023-08-13T04:48:03.181Z,60.36
2023-08-13T04:50:40.228Z,60.21
2023-08-13T04:53:13.193Z,60.20
2023-08-13T04:55:46.066Z,60.31
2023-08-13T04:58:19.885Z,60.25
2023-08-13T05:00:54.933Z,60.34
2023-08-13T05:03:28.857Z,60.35
2023-08-13T05:06:03.431Z,60.47
2023-08-13T05:08:36.238Z,60.40
2023-08-13T05:11:10.568Z,60.55
2023-08-13T05:13:43.389Z,60.47
2023-08-13T05:16:17.241Z,60.61
2023-08-13T05:18:50.739Z,60.63
2023-08-13T05:21:25.253Z,60.76
2023-08-13T05:23:58.512Z,60.77
2023-08-13T05:26:31.503Z,60.77
2023-08-13T05:29:04.692Z,60.77
2023-08-13T05:31:38.260Z,61.04
2023-08-13T05:34:11.110Z,60.86
2023-08-13T05:36:45.472Z,61.22
2023-08-13T05:39:18.323Z,61.01
2023-08-13T05:41:51.375Z,60.89
2023-08-13T05:44:24.261Z,60.82
2023-08-13T05:46:57.687Z,60.73
2023-08-13T05:49:31.191Z,60.72
2023-08-13T05:52:05.415Z,60.58
2023-08-13T05:54:38.216Z,61.04
2023-08-13T05:57:11.071Z,60.84
2023-08-13T05:59:43.850Z,60.85
2023-08-13T06:02:17.075Z,60.75
2023-08-13T06:04:50.057Z,60.73
2023-08-13T06:07:24.267Z,60.77
2023-08-13T06:09:57.713Z,61.00
2023-08-13T06:12:30.872Z,61.22
2023-08-13T06:15:03.922Z,61.23
2023-08-13T06:17:36.815Z,60.86
2023-08-13T06:20:11.194Z,61.03
2023-08-13T06:22:45.632Z,61.38
2023-08-13T06:25:18.380Z,61.00
2023-08-13T06:27:51.153Z,61.05
2023-08-13T06:30:25.244Z,61.09
2023-08-13T06:32:58.370Z,60.78
2023-08-13T06:35:31.190Z,60.94
2023-08-13T06:38:05.711Z,60.85
2023-08-13T06:40:38.706Z,60.64
2023-08-13T06:43:12.256Z,60.65
2023-08-13T06:45:44.863Z,60.08
2023-08-13T06:48:17.954Z,60.04
2023-08-13T06:50:55.879Z,60.15
2023-08-13T06:53:30.036Z,60.03
2023-08-13T06:56:04.146Z,59.60
2023-08-13T06:58:37.018Z,60.37
2023-08-13T07:01:10.782Z,60.27
2023-08-13T07:03:45.843Z,60.47
2023-08-13T07:06:21.037Z,60.62
2023-08-13T07:08:55.390Z,61.53
2023-08-13T07:11:28.200Z,60.76
2023-08-13T07:14:04.291Z,60.91
2023-08-13T07:16:37.316Z,60.78
2023-08-13T07:19:10.232Z,60.11
2023-08-13T07:21:45.062Z,59.89
2023-08-13T07:24:19.410Z,58.85
2023-08-13T07:26:52.770Z,59.75
2023-08-13T07:29:25.622Z,58.97
2023-08-13T07:31:58.398Z,58.44
2023-08-13T07:34:31.185Z,58.03
2023-08-13T07:37:04.143Z,57.81
2023-08-13T07:39:39.425Z,58.58
2023-08-13T07:42:15.451Z,57.22
2023-08-13T07:44:49.252Z,57.12
2023-08-13T07:47:22.597Z,57.44
2023-08-13T07:49:55.975Z,57.65
2023-08-13T07:52:29.205Z,58.24
2023-08-13T07:55:03.463Z,58.13
2023-08-13T07:57:36.551Z,57.99
2023-08-13T08:00:11.878Z,56.18
2023-08-13T08:02:50.194Z,56.78
2023-08-13T08:05:23.355Z,56.61
2023-08-13T08:07:56.318Z,56.76
2023-08-13T08:10:30.799Z,55.57
2023-08-13T08:13:03.820Z,56.61
2023-08-13T08:15:36.687Z,56.53
2023-08-13T08:18:09.702Z,56.68
2023-08-13T08:20:42.604Z,56.38
2023-08-13T08:23:15.348Z,55.62
2023-08-13T08:25:49.512Z,56.64
2023-08-13T08:28:22.334Z,55.55
2023-08-13T08:30:55.241Z,56.03
2023-08-13T08:33:28.115Z,55.70
2023-08-13T08:36:00.905Z,56.34
2023-08-13T08:38:33.575Z,56.21
2023-08-13T08:41:08.019Z,56.22
2023-08-13T08:43:41.686Z,55.91
2023-08-13T08:46:17.085Z,54.98
2023-08-13T08:48:52.268Z,55.03
2023-08-13T08:51:25.518Z,55.55
2023-08-13T08:54:00.454Z,55.28
2023-08-13T08:56:34.550Z,55.51
2023-08-13T08:59:07.882Z,55.71
2023-08-13T09:01:41.718Z,56.13
2023-08-13T09:04:15.216Z,55.39
2023-08-13T09:06:55.432Z,55.89
2023-08-13T09:09:29.100Z,54.88
2023-08-13T09:12:03.488Z,55.44
2023-08-13T09:14:36.307Z,55.30
2023-08-13T09:17:12.195Z,55.58
2023-08-13T09:19:45.014Z,55.20
2023-08-13T09:22:18.383Z,55.09
2023-08-13T09:24:51.569Z,55.35
2023-08-13T09:27:26.934Z,55.52
2023-08-13T09:30:03.909Z,55.07
2023-08-13T09:32:38.119Z,54.81
2023-08-13T09:35:11.273Z,54.99
2023-08-13T09:37:44.700Z,53.55
2023-08-13T09:40:17.569Z,54.62
2023-08-13T09:42:54.534Z,53.16
2023-08-13T09:45:29.795Z,52.85
2023-08-13T09:48:06.378Z,53.12
2023-08-13T09:50:41.985Z,52.36
2023-08-13T09:53:16.115Z,53.85
2023-08-13T09:55:56.393Z,54.33
2023-08-13T09:58:31.294Z,52.02
2023-08-13T10:01:05.491Z,52.19
2023-08-13T10:03:40.363Z,52.77
2023-08-13T10:06:13.927Z,51.74
2023-08-13T10:08:47.489Z,54.56
2023-08-13T10:11:20.606Z,53.42
2023-08-13T10:13:54.765Z,52.86
2023-08-13T10:16:28.452Z,51.87
2023-08-13T10:19:03.377Z,52.60
2023-08-13T10:21:36.897Z,51.82
2023-08-13T10:24:13.418Z,52.78
2023-08-13T10:26:46.432Z,50.50
2023-08-13T10:29:22.698Z,50.08
2023-08-13T10:31:56.913Z,51.15
2023-08-13T10:34:43.477Z,50.39
2023-08-13T10:37:18.701Z,51.32
2023-08-13T10:40:09.160Z,52.62
2023-08-13T10:42:51.154Z,48.35
2023-08-13T10:45:29.118Z,51.04
2023-08-13T10:48:03.848Z,49.69
2023-08-13T10:50:38.355Z,49.19
2023-08-13T10:53:12.889Z,48.73
2023-08-13T10:59:41.515Z,49.30
2023-08-13T11:02:18.948Z,50.45
2023-08-13T11:04:53.920Z,48.13
2023-08-13T11:07:27.291Z,48.99
2023-08-13T11:10:01.931Z,46.63
2023-08-13T11:12:34.978Z,49.73
2023-08-13T11:15:11.670Z,46.87
2023-08-13T11:17:48.927Z,46.36
2023-08-13T11:20:22.998Z,46.90
2023-08-13T11:22:57.050Z,49.03
2023-08-13T11:25:30.834Z,48.25
2023-08-13T11:28:03.716Z,46.52
2023-08-13T11:30:41.432Z,45.63
2023-08-13T11:33:16.249Z,47.19
2023-08-13T11:35:49.758Z,47.04
2023-08-13T11:38:25.734Z,47.91
2023-08-13T11:41:00.718Z,48.51
2023-08-13T11:43:33.521Z,46.20
2023-08-13T11:46:06.553Z,47.51
2023-08-13T11:48:43.379Z,46.23
2023-08-13T11:51:23.596Z,47.95
2023-08-13T11:53:56.406Z,47.27
2023-08-13T11:56:29.040Z,46.50
2023-08-13T11:59:01.885Z,47.08
2023-08-13T12:01:36.000Z,47.55
2023-08-13T12:04:10.697Z,47.63
2023-08-13T12:06:43.504Z,46.99
2023-08-13T12:09:16.200Z,47.11
2023-08-13T12:11:49.622Z,47.22
2023-08-13T12:14:24.601Z,47.38
2023-08-13T12:16:58.446Z,48.37
2023-08-13T12:19:32.732Z,48.22
2023-08-13T12:22:05.747Z,47.77
2023-08-13T12:24:38.665Z,48.26
2023-08-13T12:27:14.089Z,48.70
2023-08-13T12:29:46.963Z,49.11
2023-08-13T12:32:19.924Z,49.76
2023-08-13T12:34:54.113Z,48.81
2023-08-13T12:37:27.426Z,49.26
2023-08-13T12:40:00.507Z,50.32
2023-08-13T12:42:34.022Z,48.66
2023-08-13T12:45:09.190Z,47.41
2023-08-13T12:47:42.006Z,48.41
2023-08-13T12:50:16.010Z,48.72
2023-08-13T12:52:48.924Z,48.65
2023-08-13T12:55:21.922Z,48.13
2023-08-13T12:57:54.833Z,48.73
2023-08-13T13:00:27.685Z,47.94
2023-08-13T13:03:00.503Z,47.94
2023-08-13T13:05:37.052Z,48.69
2023-08-13T13:08:09.793Z,48.72
2023-08-13T13:10:42.428Z,49.02
2023-08-13T13:13:15.401Z,48.70
2023-08-13T13:15:48.294Z,49.44
2023-08-13T13:18:21.781Z,49.13
2023-08-13T13:20:55.881Z,49.51
2023-08-13T13:23:28.893Z,50.47
2023-08-13T13:26:01.721Z,49.33
2023-08-13T13:28:34.531Z,49.60
2023-08-13T13:31:07.457Z,49.50
2023-08-13T13:33:40.259Z,49.80
2023-08-13T13:36:14.814Z,50.17
2023-08-13T13:38:47.901Z,50.03
2023-08-13T13:41:20.718Z,49.88
2023-08-13T13:43:53.530Z,47.85
2023-08-13T13:46:26.440Z,49.17
2023-08-13T13:48:59.370Z,47.54
2023-08-13T13:51:33.485Z,46.60
2023-08-13T13:54:07.649Z,46.09
2023-08-13T13:56:40.590Z,49.10
2023-08-13T13:59:13.602Z,49.05
2023-08-13T14:01:48.002Z,48.30
2023-08-13T14:04:20.957Z,48.17
2023-08-13T14:06:55.233Z,47.87
2023-08-13T14:09:30.448Z,45.72
2023-08-13T14:12:03.299Z,45.77
2023-08-13T14:14:36.262Z,46.95
2023-08-13T14:17:09.207Z,44.90
2023-08-13T14:19:42.125Z,46.99
2023-08-13T14:22:16.627Z,42.60
2023-08-13T14:24:53.005Z,39.83
2023-08-13T15:00:13.188Z,39.39
2023-08-13T15:02:46.247Z,41.26
2023-08-13T15:05:19.221Z,37.94
2023-08-13T15:07:51.943Z,38.30
2023-08-13T15:28:36.821Z,38.57
2023-08-13T17:12:42.676Z,42.66
2023-08-13T17:15:24.941Z,43.04
2023-08-13T17:27:03.485Z,43.21
2023-08-13T17:29:38.759Z,43.61
2023-08-13T17:32:15.269Z,44.62
2023-08-13T17:34:48.288Z,44.10
2023-08-13T17:37:21.220Z,44.81
2023-08-13T17:39:54.275Z,44.81
2023-08-13T17:42:27.701Z,44.90
2023-08-13T17:45:01.829Z,44.47
2023-08-13T17:47:34.572Z,45.63
2023-08-13T17:50:07.724Z,44.86
2023-08-13T17:52:40.610Z,44.73
2023-08-13T17:55:13.575Z,45.45
2023-08-13T17:57:46.385Z,44.59
2023-08-13T18:00:22.686Z,44.86
2023-08-13T18:02:55.888Z,45.22
2023-08-13T18:05:28.736Z,45.23
2023-08-13T18:08:15.452Z,45.24
2023-08-13T18:10:50.801Z,45.58
2023-08-13T18:13:23.540Z,46.21
2023-08-13T18:15:57.909Z,45.75
2023-08-13T18:18:31.088Z,46.18
2023-08-13T18:21:04.269Z,46.58
2023-08-13T18:23:37.101Z,47.13
2023-08-13T18:26:10.154Z,46.75
2023-08-13T18:28:42.957Z,46.90
2023-08-13T18:31:17.383Z,47.31
2023-08-13T18:33:52.360Z,47.54
2023-08-13T18:36:25.349Z,48.26
2023-08-13T18:38:58.199Z,47.69
2023-08-13T18:41:30.777Z,47.90
2023-08-13T18:44:04.098Z,47.90
2023-08-13T18:46:38.357Z,47.26
2023-08-13T18:49:11.204Z,47.01
2023-08-13T18:51:44.015Z,46.69
2023-08-13T18:54:16.918Z,47.29
2023-08-13T18:56:50.009Z,47.32
2023-08-13T18:59:23.449Z,47.50
2023-08-13T19:01:57.606Z,47.90
2023-08-13T19:04:30.660Z,47.62
2023-08-13T19:07:03.897Z,47.87
2023-08-13T19:09:36.875Z,48.13
2023-08-13T19:12:10.485Z,48.30
2023-08-13T19:14:43.442Z,48.53
2023-08-13T19:17:17.978Z,48.46
2023-08-13T19:19:50.793Z,48.26
2023-08-13T19:22:24.692Z,48.45
2023-08-13T19:24:57.769Z,48.65
2023-08-13T19:27:30.706Z,49.04
2023-08-13T19:30:03.646Z,48.85
2023-08-13T19:32:37.809Z,48.90
2023-08-13T19:35:11.140Z,49.02
2023-08-13T19:37:44.024Z,49.35
2023-08-13T19:40:17.496Z,49.32
2023-08-13T19:42:50.449Z,49.50
2023-08-13T19:45:23.352Z,49.32
2023-08-13T19:47:57.312Z,49.35
2023-08-13T19:50:32.277Z,49.50
2023-08-13T19:53:05.492Z,49.96
2023-08-13T19:55:38.346Z,50.23
2023-08-13T19:58:12.098Z,50.20
2023-08-13T20:00:45.238Z,50.54
2023-08-13T20:03:19.668Z,50.60
2023-08-13T20:05:52.494Z,50.50
2023-08-13T20:08:26.435Z,50.48
2023-08-13T20:10:59.636Z,50.40
2023-08-13T20:13:32.874Z,50.73
2023-08-13T20:16:06.167Z,50.57
2023-08-13T20:18:40.456Z,50.98
2023-08-13T20:21:13.344Z,50.99
2023-08-13T20:23:48.162Z,51.25
2023-08-13T20:26:22.996Z,51.26
2023-08-13T20:28:55.694Z,51.34
2023-08-13T20:31:29.974Z,51.42
2023-08-13T20:34:04.659Z,51.75
2023-08-13T20:36:39.279Z,51.72
2023-08-13T20:39:12.532Z,51.77
2023-08-13T20:41:47.258Z,51.91
2023-08-13T20:44:20.937Z,52.03
2023-08-13T20:46:55.039Z,52.07
2023-08-13T20:49:29.177Z,52.77
2023-08-13T20:52:02.102Z,52.06
2023-08-13T20:54:36.860Z,52.57
2023-08-13T20:57:11.850Z,52.72
2023-08-13T20:59:44.553Z,52.33
2023-08-13T21:02:17.805Z,52.57
2023-08-13T21:04:53.180Z,52.65
2023-08-13T21:07:26.292Z,53.04
2023-08-13T21:09:59.147Z,52.62
2023-08-13T21:12:31.796Z,52.98
2023-08-13T21:15:05.601Z,52.95
2023-08-13T21:17:38.541Z,53.08
2023-08-13T21:20:13.224Z,53.26
2023-08-13T21:22:46.018Z,53.27
2023-08-13T21:25:18.979Z,53.42
2023-08-13T21:27:51.774Z,53.41
2023-08-13T21:30:24.778Z,53.27
2023-08-13T21:32:58.422Z,53.60
2023-08-13T21:35:32.560Z,53.73
2023-08-13T21:38:05.570Z,53.83
2023-08-13T21:40:38.476Z,53.85
2023-08-13T21:43:11.542Z,54.12
2023-08-13T21:45:45.143Z,53.93
2023-08-13T21:48:17.760Z,54.43
2023-08-13T21:50:55.553Z,54.27
2023-08-13T21:53:33.984Z,54.52
2023-08-13T21:56:06.829Z,54.25
2023-08-13T21:58:39.598Z,54.38
2023-08-13T22:01:12.290Z,54.66
2023-08-13T22:03:45.209Z,54.55
2023-08-13T22:06:19.534Z,54.58
2023-08-13T22:08:53.247Z,54.82
2023-08-13T22:11:26.195Z,54.63
2023-08-13T22:13:59.212Z,54.93
2023-08-13T22:16:31.940Z,55.02
2023-08-13T22:19:05.127Z,55.11
2023-08-13T22:21:39.400Z,55.24
2023-08-13T22:24:12.068Z,55.02
2023-08-13T22:26:44.969Z,55.37
2023-08-13T22:29:17.644Z,55.24
2023-08-13T22:31:50.450Z,55.38
2023-08-13T22:34:23.362Z,55.50
2023-08-13T22:36:57.505Z,55.24
2023-08-13T22:39:31.051Z,55.49
2023-08-13T22:42:03.850Z,55.65
2023-08-13T22:44:36.862Z,55.94
2023-08-13T22:47:09.696Z,55.53
2023-08-13T22:49:42.425Z,55.93
2023-08-13T22:52:16.763Z,55.81
2023-08-13T22:54:49.896Z,55.94
2023-08-13T22:57:22.950Z,56.05
2023-08-13T22:59:55.641Z,56.05
2023-08-13T23:02:28.789Z,56.10
2023-08-13T23:05:01.938Z,56.06
2023-08-13T23:07:36.243Z,56.13
2023-08-13T23:10:09.657Z,56.25
2023-08-13T23:12:42.578Z,56.33
2023-08-13T23:15:15.912Z,56.35
2023-08-13T23:17:48.775Z,56.72
2023-08-13T23:20:24.111Z,56.48
2023-08-13T23:22:58.307Z,56.58
2023-08-13T23:25:31.128Z,56.75
2023-08-13T23:28:04.364Z,56.97
2023-08-13T23:30:37.264Z,56.60
2023-08-13T23:36:17.610Z,56.73
2023-08-13T23:38:51.854Z,56.79
2023-08-13T23:41:24.670Z,56.66
2023-08-13T23:43:57.314Z,57.00
2023-08-13T23:46:30.177Z,56.84
2023-08-13T23:49:02.922Z,56.83
2023-08-13T23:51:36.108Z,57.43
2023-08-13T23:54:10.872Z,57.14
2023-08-13T23:56:43.974Z,57.34
2023-08-13T23:59:16.758Z,57.21
